Time;durP1;ratioP1;P1;durP2;ratioP2;P2;SDS_P1;SDS_P2;PMS_P1;PMS_P2;Temp;Humidity;BMP_temperature;BMP_pressure;BME280_temperature;BME280_humidity;BME280_pressure;Samples;Min_cycle;Max_cycle;Signal;HPM_P1;HPM_P2
2021/06/24 00:01:48;;;;;;;22.57;20.53;;;;;;;;;;5023156;28;20470;-73
2021/06/24 00:04:16;;;;;;;23.77;21.33;;;;;;;;;;5027216;28;20963;-74
2021/06/24 00:06:43;;;;;;;23.17;20.90;;;;;;;;;;5023644;28;21022;-74
2021/06/24 00:09:11;;;;;;;22.37;20.20;;;;;;;;;;5027847;28;20544;-74
2021/06/24 00:11:39;;;;;;;21.77;19.77;;;;;;;;;;5024615;28;20516;-74
2021/06/24 00:14:06;;;;;;;24.23;22.03;;;;;;;;;;5025767;28;20458;-74
2021/06/24 00:16:33;;;;;;;23.03;21.00;;;;;;;;;;5023419;28;21019;-74
2021/06/24 00:19:00;;;;;;;22.03;20.20;;;;;;;;;;5026393;28;20946;-74
2021/06/24 00:21:27;;;;;;;21.93;20.13;;;;;;;;;;5030382;28;20503;-74
2021/06/24 00:23:54;;;;;;;20.70;18.67;;;;;;;;;;5027390;28;20448;-74
2021/06/24 00:26:23;;;;;;;21.87;19.97;;;;;;;;;;5022699;28;20514;-74
2021/06/24 00:28:50;;;;;;;22.63;18.93;;;;;;;;;;5023760;28;20544;-74
2021/06/24 00:31:17;;;;;;;22.70;20.47;;;;;;;;;;5028025;28;21775;-73
2021/06/24 00:33:44;;;;;;;20.80;18.97;;;;;;;;;;5024720;28;20551;-73
2021/06/24 00:36:11;;;;;;;19.83;18.30;;;;;;;;;;5027998;28;20480;-73
2021/06/24 00:38:39;;;;;;;21.27;19.33;;;;;;;;;;5024704;28;20454;-74
2021/06/24 00:41:06;;;;;;;22.10;20.00;;;;;;;;;;5027638;28;20679;-72
2021/06/24 00:43:34;;;;;;;23.57;21.47;;;;;;;;;;5023029;28;20509;-74
2021/06/24 00:46:02;;;;;;;22.67;20.57;;;;;;;;;;5027067;28;20812;-73
2021/06/24 00:48:29;;;;;;;23.60;21.47;;;;;;;;;;5026430;28;20860;-74
2021/06/24 00:50:56;;;;;;;26.87;24.47;;;;;;;;;;5031887;28;20435;-73
2021/06/24 00:53:23;;;;;;;22.70;20.50;;;;;;;;;;5028058;28;20875;-73
2021/06/24 00:55:51;;;;;;;24.20;21.80;;;;;;;;;;5024933;28;20454;-72
2021/06/24 00:58:20;;;;;;;24.10;22.00;;;;;;;;;;5028094;28;20454;-73
2021/06/24 01:00:49;;;;;;;24.57;22.50;;;;;;;;;;5028264;28;20444;-73
2021/06/24 01:03:17;;;;;;;25.20;22.80;;;;;;;;;;5026251;28;20480;-73
2021/06/24 01:05:45;;;;;;;24.23;21.93;;;;;;;;;;5020425;28;20452;-75
2021/06/24 01:08:14;;;;;;;24.60;22.50;;;;;;;;;;5030055;28;20471;-73
2021/06/24 01:10:43;;;;;;;23.40;21.40;;;;;;;;;;5030616;28;20451;-73
2021/06/24 01:13:10;;;;;;;24.07;21.87;;;;;;;;;;5032294;28;20480;-73
2021/06/24 01:15:38;;;;;;;24.73;22.50;;;;;;;;;;5024983;28;20456;-73
2021/06/24 01:18:06;;;;;;;25.13;23.03;;;;;;;;;;5038855;28;20450;-73
2021/06/24 01:20:36;;;;;;;25.03;22.73;;;;;;;;;;5032015;28;20452;-73
2021/06/24 01:23:04;;;;;;;25.90;23.60;;;;;;;;;;5025443;28;20467;-74
2021/06/24 01:25:33;;;;;;;26.13;23.63;;;;;;;;;;5027216;28;20452;-74
2021/06/24 01:28:01;;;;;;;24.60;22.30;;;;;;;;;;5027047;28;20906;-73
2021/06/24 01:30:29;;;;;;;25.43;23.03;;;;;;;;;;5027297;28;20611;-74
2021/06/24 01:32:56;;;;;;;26.20;23.63;;;;;;;;;;5031222;28;20538;-75
2021/06/24 01:35:24;;;;;;;26.10;23.90;;;;;;;;;;5027363;28;20914;-73
2021/06/24 01:37:56;;;;;;;26.53;24.03;;;;;;;;;;5030728;28;20462;-73
2021/06/24 01:40:23;;;;;;;25.93;23.60;;;;;;;;;;5026929;28;20932;-73
2021/06/24 01:42:51;;;;;;;26.40;23.77;;;;;;;;;;5029963;28;20470;-73
2021/06/24 01:45:18;;;;;;;27.23;24.53;;;;;;;;;;5027660;28;20485;-72
2021/06/24 01:47:46;;;;;;;25.97;23.67;;;;;;;;;;5030746;28;20543;-74
2021/06/24 01:50:13;;;;;;;26.63;23.90;;;;;;;;;;5026680;28;20498;-74
2021/06/24 01:52:41;;;;;;;26.33;23.90;;;;;;;;;;5029809;28;20489;-74
2021/06/24 01:55:08;;;;;;;26.47;23.97;;;;;;;;;;5027875;28;20454;-74
2021/06/24 01:57:36;;;;;;;24.77;22.37;;;;;;;;;;5029930;28;20988;-73
2021/06/24 02:00:07;;;;;;;26.87;24.37;;;;;;;;;;5024045;28;20872;-73
2021/06/24 02:02:34;;;;;;;26.13;23.87;;;;;;;;;;5025217;28;20513;-72
2021/06/24 02:05:01;;;;;;;26.40;24.00;;;;;;;;;;5027584;28;20496;-72
2021/06/24 02:07:28;;;;;;;25.77;23.40;;;;;;;;;;5027533;28;20977;-72
2021/06/24 02:09:55;;;;;;;24.50;22.40;;;;;;;;;;5030058;28;20794;-73
2021/06/24 02:12:22;;;;;;;25.90;23.40;;;;;;;;;;5027953;28;20542;-74
2021/06/24 02:14:50;;;;;;;24.97;22.80;;;;;;;;;;5028515;28;20600;-73
2021/06/24 02:17:18;;;;;;;24.73;22.53;;;;;;;;;;5025378;28;20479;-74
2021/06/24 02:19:45;;;;;;;24.97;22.80;;;;;;;;;;5023349;28;20546;-73
2021/06/24 02:22:13;;;;;;;25.07;22.77;;;;;;;;;;5023494;28;20467;-73
2021/06/24 02:24:40;;;;;;;24.30;22.30;;;;;;;;;;5038819;28;20557;-72
2021/06/24 02:27:08;;;;;;;24.80;22.20;;;;;;;;;;5021776;28;20598;-73
2021/06/24 02:29:35;;;;;;;24.30;22.20;;;;;;;;;;5025477;28;20547;-74
2021/06/24 02:32:02;;;;;;;25.40;23.20;;;;;;;;;;5021558;28;20538;-73
2021/06/24 02:34:30;;;;;;;24.47;22.37;;;;;;;;;;5029783;28;20560;-74
2021/06/24 02:36:58;;;;;;;24.27;21.90;;;;;;;;;;5018582;28;20931;-74
2021/06/24 02:39:25;;;;;;;25.13;22.87;;;;;;;;;;5025446;28;20994;-73
2021/06/24 02:41:52;;;;;;;24.77;22.57;;;;;;;;;;5028752;28;20449;-73
2021/06/24 02:44:19;;;;;;;24.53;22.17;;;;;;;;;;5027395;28;20562;-73
2021/06/24 02:46:46;;;;;;;24.50;22.20;;;;;;;;;;5023253;28;20465;-73
2021/06/24 02:49:13;;;;;;;26.63;24.03;;;;;;;;;;5024392;28;20539;-73
2021/06/24 02:51:42;;;;;;;25.07;22.97;;;;;;;;;;5026217;28;20458;-73
2021/06/24 02:54:09;;;;;;;24.57;22.20;;;;;;;;;;5024967;28;20458;-74
2021/06/24 02:56:40;;;;;;;24.10;22.00;;;;;;;;;;5028469;28;20887;-73
2021/06/24 02:59:07;;;;;;;24.80;22.47;;;;;;;;;;5025787;28;21032;-73
2021/06/24 03:01:34;;;;;;;25.23;22.67;;;;;;;;;;5027825;28;20450;-73
2021/06/24 03:04:01;;;;;;;25.70;23.20;;;;;;;;;;5025294;28;20558;-73
2021/06/24 03:06:28;;;;;;;24.27;22.07;;;;;;;;;;5028183;28;20562;-73
2021/06/24 03:08:57;;;;;;;26.23;23.87;;;;;;;;;;5025237;28;20681;-74
2021/06/24 03:11:24;;;;;;;24.27;22.03;;;;;;;;;;5028970;28;20565;-74
2021/06/24 03:13:51;;;;;;;24.33;22.10;;;;;;;;;;5022015;28;20455;-74
2021/06/24 03:16:18;;;;;;;24.20;21.93;;;;;;;;;;5026204;28;20499;-74
2021/06/24 03:18:48;;;;;;;24.83;22.37;;;;;;;;;;5027330;28;20454;-74
2021/06/24 03:21:16;;;;;;;24.50;22.30;;;;;;;;;;5028080;28;20559;-74
2021/06/24 03:23:43;;;;;;;23.87;21.73;;;;;;;;;;5025796;28;20502;-74
2021/06/24 03:26:11;;;;;;;24.20;21.87;;;;;;;;;;5028282;28;20449;-74
2021/06/24 03:28:38;;;;;;;24.17;21.90;;;;;;;;;;5027520;28;20457;-74
2021/06/24 03:31:06;;;;;;;23.67;21.57;;;;;;;;;;5024506;28;20531;-74
2021/06/24 03:33:33;;;;;;;25.00;22.87;;;;;;;;;;5023079;28;20439;-73
2021/06/24 03:36:00;;;;;;;25.23;22.83;;;;;;;;;;5026024;28;20492;-74
2021/06/24 03:38:27;;;;;;;24.87;22.47;;;;;;;;;;5025889;28;20564;-74
2021/06/24 03:40:54;;;;;;;26.40;23.83;;;;;;;;;;5025416;28;20584;-74
2021/06/24 03:43:23;;;;;;;26.07;23.70;;;;;;;;;;5024374;28;20627;-75
2021/06/24 03:45:50;;;;;;;27.80;25.10;;;;;;;;;;5028369;28;20463;-73
2021/06/24 03:48:17;;;;;;;27.33;24.67;;;;;;;;;;5028139;28;20530;-74
2021/06/24 03:50:44;;;;;;;27.87;25.23;;;;;;;;;;5023299;28;20462;-73
2021/06/24 03:53:12;;;;;;;26.37;23.70;;;;;;;;;;5031223;28;20459;-73
2021/06/24 03:55:41;;;;;;;29.57;26.77;;;;;;;;;;5017595;28;20543;-73
2021/06/24 03:58:09;;;;;;;29.00;26.20;;;;;;;;;;5023640;28;20537;-72
2021/06/24 04:00:39;;;;;;;28.63;25.73;;;;;;;;;;5025829;28;20480;-74
2021/06/24 04:03:07;;;;;;;27.90;25.27;;;;;;;;;;5030069;28;20460;-72
2021/06/24 04:05:34;;;;;;;27.67;25.10;;;;;;;;;;5026153;28;20570;-73
2021/06/24 04:08:01;;;;;;;30.07;27.17;;;;;;;;;;5028386;28;20463;-71
2021/06/24 04:10:28;;;;;;;30.97;27.73;;;;;;;;;;5028170;28;20789;-74
2021/06/24 04:12:56;;;;;;;26.13;23.53;;;;;;;;;;5030024;28;20460;-74
2021/06/24 04:15:23;;;;;;;30.57;27.30;;;;;;;;;;5029491;28;20458;-73
2021/06/24 04:17:52;;;;;;;33.00;29.60;;;;;;;;;;5026496;28;20461;-73
2021/06/24 04:20:19;;;;;;;31.73;27.97;;;;;;;;;;5032303;28;20939;-73
2021/06/24 04:22:46;;;;;;;30.53;27.63;;;;;;;;;;5026331;28;20514;-73
2021/06/24 04:25:15;;;;;;;29.90;26.80;;;;;;;;;;5032707;28;20534;-73
2021/06/24 04:27:43;;;;;;;29.37;26.37;;;;;;;;;;5024036;28;20454;-73
2021/06/24 04:30:11;;;;;;;30.70;27.50;;;;;;;;;;5030189;28;20498;-73
2021/06/24 04:32:39;;;;;;;34.57;30.87;;;;;;;;;;5024822;28;20454;-75
2021/06/24 04:35:08;;;;;;;33.43;30.03;;;;;;;;;;5028609;28;20453;-74
2021/06/24 04:37:36;;;;;;;35.83;32.07;;;;;;;;;;5027607;28;20477;-74
2021/06/24 04:40:03;;;;;;;36.27;31.87;;;;;;;;;;5028429;28;20486;-73
2021/06/24 04:42:31;;;;;;;35.37;30.83;;;;;;;;;;5025988;28;20464;-74
2021/06/24 04:44:58;;;;;;;35.73;31.70;;;;;;;;;;5027637;28;20456;-74
2021/06/24 04:47:25;;;;;;;34.53;29.93;;;;;;;;;;5025410;28;20447;-75
2021/06/24 04:49:52;;;;;;;35.03;31.43;;;;;;;;;;5029305;28;20749;-75
2021/06/24 04:52:21;;;;;;;34.83;31.10;;;;;;;;;;5031092;28;20553;-74
2021/06/24 04:54:48;;;;;;;41.47;34.63;;;;;;;;;;5037364;28;20949;-74
2021/06/24 04:57:15;;;;;;;40.10;34.40;;;;;;;;;;5029103;28;20561;-74
2021/06/24 04:59:42;;;;;;;36.80;32.57;;;;;;;;;;5028237;28;20450;-74
2021/06/24 05:02:09;;;;;;;39.63;33.00;;;;;;;;;;5032667;28;21013;-75
2021/06/24 05:04:37;;;;;;;35.50;31.70;;;;;;;;;;5028365;28;20809;-75
2021/06/24 05:07:08;;;;;;;38.00;32.90;;;;;;;;;;5028238;28;20508;-74
2021/06/24 05:09:39;;;;;;;36.23;32.37;;;;;;;;;;5024404;28;20462;-73
2021/06/24 05:12:07;;;;;;;36.70;32.40;;;;;;;;;;5026867;28;20450;-74
2021/06/24 05:14:34;;;;;;;35.20;31.47;;;;;;;;;;5024707;28;20447;-75
2021/06/24 05:17:01;;;;;;;38.33;33.03;;;;;;;;;;5031377;28;20502;-74
2021/06/24 05:19:29;;;;;;;40.77;34.67;;;;;;;;;;5029037;28;20779;-74
2021/06/24 05:21:56;;;;;;;34.87;30.90;;;;;;;;;;5023741;28;20454;-74
2021/06/24 05:24:23;;;;;;;36.30;32.40;;;;;;;;;;5029383;28;21068;-73
2021/06/24 05:26:52;;;;;;;37.20;32.47;;;;;;;;;;5030860;28;20474;-74
2021/06/24 05:29:19;;;;;;;39.70;33.50;;;;;;;;;;5027878;28;20533;-75
2021/06/24 05:31:46;;;;;;;40.37;32.90;;;;;;;;;;5032054;28;20543;-74
2021/06/24 05:34:14;;;;;;;35.50;31.70;;;;;;;;;;5026591;28;20565;-74
2021/06/24 05:36:41;;;;;;;34.73;30.90;;;;;;;;;;5028698;28;20984;-75
2021/06/24 05:39:09;;;;;;;38.90;33.77;;;;;;;;;;5023290;28;20469;-74
2021/06/24 05:41:36;;;;;;;36.47;32.57;;;;;;;;;;5029706;28;20977;-74
2021/06/24 05:44:05;;;;;;;36.70;32.03;;;;;;;;;;5027063;28;20522;-75
2021/06/24 05:46:32;;;;;;;34.77;31.07;;;;;;;;;;5029163;28;20914;-75
2021/06/24 05:48:59;;;;;;;33.37;29.87;;;;;;;;;;5026665;28;20454;-75
2021/06/24 05:51:27;;;;;;;34.27;30.77;;;;;;;;;;5024952;28;21024;-74
2021/06/24 05:53:54;;;;;;;33.00;29.50;;;;;;;;;;5028550;28;20526;-74
2021/06/24 05:56:23;;;;;;;32.13;28.73;;;;;;;;;;5021712;28;20519;-73
2021/06/24 05:58:50;;;;;;;32.67;28.40;;;;;;;;;;5027842;28;20839;-74
2021/06/24 06:01:20;;;;;;;32.07;28.80;;;;;;;;;;5026761;28;20822;-75
2021/06/24 06:03:48;;;;;;;35.67;31.60;;;;;;;;;;5028084;28;21085;-75
2021/06/24 06:06:15;;;;;;;31.07;27.93;;;;;;;;;;5027718;28;20454;-75
2021/06/24 06:08:42;;;;;;;33.47;29.73;;;;;;;;;;5030597;28;20847;-74
2021/06/24 06:11:09;;;;;;;33.83;29.60;;;;;;;;;;5024263;28;20457;-74
2021/06/24 06:13:36;;;;;;;35.57;31.13;;;;;;;;;;5030393;28;20464;-74
2021/06/24 06:16:04;;;;;;;33.00;29.67;;;;;;;;;;5025283;28;20486;-74
2021/06/24 06:18:32;;;;;;;29.70;26.73;;;;;;;;;;5030246;28;20472;-74
2021/06/24 06:21:00;;;;;;;28.93;25.83;;;;;;;;;;5029488;28;20524;-75
2021/06/24 06:23:28;;;;;;;30.77;27.60;;;;;;;;;;5037168;28;20554;-75
2021/06/24 06:25:56;;;;;;;29.77;26.70;;;;;;;;;;5028377;28;20884;-75
2021/06/24 06:28:24;;;;;;;29.23;26.10;;;;;;;;;;5030669;28;20514;-75
2021/06/24 06:30:52;;;;;;;27.13;24.33;;;;;;;;;;5022043;28;20456;-74
2021/06/24 06:33:19;;;;;;;24.87;22.73;;;;;;;;;;5028115;28;20557;-74
2021/06/24 06:35:49;;;;;;;38.13;26.77;;;;;;;;;;5030171;28;20982;-74
2021/06/24 06:38:16;;;;;;;24.93;22.67;;;;;;;;;;5027290;28;20951;-75
2021/06/24 06:40:44;;;;;;;26.67;24.13;;;;;;;;;;5029350;28;20457;-75
2021/06/24 06:43:12;;;;;;;26.37;23.90;;;;;;;;;;5021468;28;20543;-74
2021/06/24 06:45:39;;;;;;;25.77;23.23;;;;;;;;;;5030012;28;20450;-74
2021/06/24 06:48:06;;;;;;;26.80;24.00;;;;;;;;;;5027586;28;20527;-74
2021/06/24 06:50:34;;;;;;;24.77;22.33;;;;;;;;;;5026844;28;20454;-74
2021/06/24 06:53:02;;;;;;;24.03;21.80;;;;;;;;;;5022937;28;20472;-75
2021/06/24 06:55:29;;;;;;;24.33;21.97;;;;;;;;;;5024862;28;20458;-75
2021/06/24 06:57:57;;;;;;;23.63;21.33;;;;;;;;;;5020320;28;20871;-74
2021/06/24 07:00:25;;;;;;;21.00;19.23;;;;;;;;;;5030237;28;20458;-74
2021/06/24 07:02:52;;;;;;;20.97;19.00;;;;;;;;;;5024753;28;20473;-75
2021/06/24 07:05:19;;;;;;;18.83;17.03;;;;;;;;;;5028495;28;20558;-75
2021/06/24 07:07:46;;;;;;;21.80;19.77;;;;;;;;;;5021378;28;20455;-74
2021/06/24 07:10:15;;;;;;;21.10;19.27;;;;;;;;;;5026001;28;20484;-75
2021/06/24 07:12:43;;;;;;;21.27;19.27;;;;;;;;;;5026814;28;20491;-75
2021/06/24 07:15:10;;;;;;;22.13;19.90;;;;;;;;;;5029279;28;20519;-74
2021/06/24 07:17:38;;;;;;;21.70;19.70;;;;;;;;;;5022697;28;20510;-74
2021/06/24 07:20:06;;;;;;;22.03;19.80;;;;;;;;;;5026432;28;20447;-74
2021/06/24 07:22:33;;;;;;;20.57;18.67;;;;;;;;;;5029605;28;20946;-74
2021/06/24 07:25:00;;;;;;;21.23;19.03;;;;;;;;;;5022094;28;20893;-75
2021/06/24 07:27:29;;;;;;;20.80;18.70;;;;;;;;;;5030127;28;20488;-75
2021/06/24 07:29:56;;;;;;;19.80;18.00;;;;;;;;;;5023705;28;20694;-75
2021/06/24 07:32:23;;;;;;;20.60;18.60;;;;;;;;;;5030377;28;20704;-75
2021/06/24 07:34:50;;;;;;;20.30;18.50;;;;;;;;;;5026318;28;20452;-75
2021/06/24 07:37:17;;;;;;;19.77;17.97;;;;;;;;;;5028379;28;20493;-75
2021/06/24 07:39:44;;;;;;;20.47;18.47;;;;;;;;;;5021345;28;20474;-74
2021/06/24 07:42:12;;;;;;;20.10;18.03;;;;;;;;;;5028714;28;20521;-75
2021/06/24 07:44:40;;;;;;;20.00;18.13;;;;;;;;;;5025312;28;20475;-75
2021/06/24 07:47:07;;;;;;;20.17;18.27;;;;;;;;;;5026127;28;20858;-75
2021/06/24 07:49:35;;;;;;;20.43;18.40;;;;;;;;;;5024304;28;20453;-75
2021/06/24 07:52:02;;;;;;;19.20;17.43;;;;;;;;;;5028272;28;20564;-75
2021/06/24 07:54:29;;;;;;;17.03;15.53;;;;;;;;;;5025280;28;20504;-74
2021/06/24 07:56:56;;;;;;;18.10;16.60;;;;;;;;;;5023875;28;20563;-75
2021/06/24 07:59:23;;;;;;;18.00;16.50;;;;;;;;;;5025480;28;20473;-75
2021/06/24 08:01:52;;;;;;;17.17;15.67;;;;;;;;;;5029145;28;20540;-75
2021/06/24 08:04:19;;;;;;;16.67;15.17;;;;;;;;;;5030854;28;20516;-75
2021/06/24 08:06:46;;;;;;;15.10;13.80;;;;;;;;;;5025685;28;20993;-74
2021/06/24 08:09:14;;;;;;;13.80;12.60;;;;;;;;;;5026249;28;20457;-74
2021/06/24 08:11:42;;;;;;;14.60;13.50;;;;;;;;;;5028821;28;20453;-74
2021/06/24 08:14:09;;;;;;;13.50;12.40;;;;;;;;;;5030363;28;20501;-74
2021/06/24 08:16:36;;;;;;;14.30;13.13;;;;;;;;;;5027329;28;20478;-75
2021/06/24 08:19:05;;;;;;;14.80;13.40;;;;;;;;;;5030444;28;20547;-74
2021/06/24 08:21:33;;;;;;;14.80;13.47;;;;;;;;;;5028975;28;20909;-73
2021/06/24 08:24:00;;;;;;;13.50;12.10;;;;;;;;;;5037027;28;20469;-76
2021/06/24 08:26:27;;;;;;;12.23;11.20;;;;;;;;;;5038296;28;20521;-74
2021/06/24 08:28:54;;;;;;;16.10;14.60;;;;;;;;;;5037813;28;20536;-74
2021/06/24 08:31:21;;;;;;;15.73;14.13;;;;;;;;;;5037723;28;20505;-75
2021/06/24 08:33:48;;;;;;;15.10;13.70;;;;;;;;;;5032980;28;20462;-75
2021/06/24 08:36:18;;;;;;;14.40;13.20;;;;;;;;;;5028715;28;20465;-74
2021/06/24 08:38:45;;;;;;;15.13;13.73;;;;;;;;;;5032068;28;20871;-74
2021/06/24 08:41:14;;;;;;;15.50;13.23;;;;;;;;;;5031181;28;20460;-75
2021/06/24 08:43:42;;;;;;;14.17;12.97;;;;;;;;;;5032018;28;20584;-75
2021/06/24 08:46:09;;;;;;;20.87;15.03;;;;;;;;;;5030221;28;20607;-75
2021/06/24 08:48:37;;;;;;;15.63;14.30;;;;;;;;;;5029618;28;20466;-75
2021/06/24 08:51:05;;;;;;;13.83;12.60;;;;;;;;;;5031056;28;20450;-74
2021/06/24 08:53:34;;;;;;;13.83;12.63;;;;;;;;;;5029894;28;20548;-74
2021/06/24 08:56:01;;;;;;;14.63;13.30;;;;;;;;;;5035926;28;20509;-74
2021/06/24 08:58:29;;;;;;;14.23;13.00;;;;;;;;;;5029862;28;20966;-74
2021/06/24 09:00:56;;;;;;;14.50;13.20;;;;;;;;;;5034425;28;20446;-74
2021/06/24 09:03:24;;;;;;;11.70;10.70;;;;;;;;;;5028476;28;20826;-74
2021/06/24 09:05:52;;;;;;;11.80;10.80;;;;;;;;;;5032128;28;20470;-75
2021/06/24 09:08:40;;;;;;;12.50;11.50;;;;;;;;;;5031345;28;20463;-75
2021/06/24 09:11:16;;;;;;;10.80;9.90;;;27.80;62.20;;;;;;5026897;28;20451;-74
2021/06/24 09:13:44;;;;;;;11.73;10.63;;;;;;;;;;5028819;28;20544;-75
2021/06/24 09:16:22;;;;;;;12.07;11.07;;;;;;;;;;5029047;28;20470;-73
2021/06/24 09:18:49;;;;;;;13.63;12.50;;;;;;;;;;5025499;28;20453;-75
2021/06/24 09:21:23;;;;;;;15.23;13.93;;;;;;;;;;5032297;28;20827;-75
2021/06/24 09:23:51;;;;;;;15.43;14.03;;;;;;;;;;5024628;28;20568;-75
2021/06/24 09:26:19;;;;;;;16.90;15.47;;;;;;;;;;5032178;28;20628;-74
2021/06/24 09:28:49;;;;;;;15.30;13.90;;;;;;;;;;5029064;28;20478;-74
2021/06/24 09:31:23;;;;;;;15.20;13.90;;;;;;;;;;5023879;28;20461;-74
2021/06/24 09:33:50;;;;;;;17.10;15.57;;;;;;;;;;5028491;28;20524;-74
2021/06/24 09:36:34;;;;;;;16.57;15.07;;;;;;;;;;5031223;28;20539;-73
2021/06/24 09:39:01;;;;;;;16.90;14.73;;;;;;;;;;5026871;28;20566;-74
2021/06/24 09:41:30;;;;;;;17.97;16.27;;;;;;;;;;5030740;28;20460;-74
2021/06/24 09:43:57;;;;;;;17.60;16.00;;;;;;;;;;5029128;28;20485;-74
2021/06/24 09:46:26;;;;;;;17.60;16.10;;;;;;;;;;5027191;28;20463;-74
2021/06/24 09:48:55;;;;;;;25.90;15.90;;;;;;;;;;5027841;28;20488;-73
2021/06/24 09:51:24;;;;;;;18.93;17.17;;;;;;;;;;5031551;28;20835;-74
2021/06/24 09:53:53;;;;;;;16.67;15.17;;;;;;;;;;5028646;28;20448;-74
2021/06/24 09:56:21;;;;;;;16.50;14.80;;;;;;;;;;5030407;28;20924;-74
2021/06/24 09:58:50;;;;;;;18.17;14.90;;;;;;;;;;5022922;28;20517;-74
2021/06/24 10:01:27;;;;;;;23.40;15.63;;;;;;;;;;5032001;28;20476;-74
2021/06/24 10:03:55;;;;;;;17.73;15.87;;;;;;;;;;5030801;28;20460;-74
2021/06/24 10:06:22;;;;;;;17.70;16.00;;;;;;;;;;5025479;28;20471;-74
2021/06/24 10:08:49;;;;;;;18.50;16.70;;;;;;;;;;5029005;28;20458;-75
2021/06/24 10:11:17;;;;;;;17.13;15.73;;;;;;;;;;5023928;28;20463;-75
2021/06/24 10:13:44;;;;;;;17.00;15.23;;;;;;;;;;5031170;28;20526;-74
2021/06/24 10:16:13;;;;;;;16.77;15.30;;;;;;;;;;5033443;28;20564;-74
2021/06/24 10:18:41;;;;;;;16.70;15.20;;;;;;;;;;5030493;28;20442;-75
2021/06/24 10:21:08;;;;;;;15.03;13.83;;;;;;;;;;5028232;28;20453;-74
2021/06/24 10:23:36;;;;;;;16.27;14.90;;;;;;;;;;5047063;28;20443;-74
2021/06/24 10:26:04;;;;;;;14.93;13.30;;;;;;;;;;5031247;28;20549;-73
2021/06/24 10:28:31;;;;;;;14.70;13.40;;;;;;;;;;5028736;28;21019;-73
2021/06/24 10:30:58;;;;;;;16.10;14.70;;;;;;;;;;5025531;28;20452;-73
2021/06/24 10:33:27;;;;;;;15.73;14.37;;;;;;;;;;5025328;28;20458;-74
2021/06/24 10:35:56;;;;;;;14.63;13.43;;;;;;;;;;5020191;28;20482;-74
2021/06/24 10:38:41;;;;;;;16.27;14.87;;;;;;;;;;5021507;28;20454;-75
2021/06/24 10:41:08;;;;;;;16.70;15.00;;;;;;;;;;5028218;28;20496;-74
2021/06/24 10:43:46;;;;;;;16.57;15.10;;;;;;;;;;5023517;28;20520;-74
2021/06/24 10:46:13;;;;;;;15.03;13.83;;;;;;;;;;5027006;28;20563;-74
2021/06/24 10:48:42;;;;;;;14.97;13.70;;;;;;;;;;5033850;28;20474;-74
2021/06/24 10:51:10;;;;;;;15.97;14.67;;;;;;;;;;5021520;28;20536;-75
2021/06/24 10:53:47;;;;;;;15.33;14.00;;;;;;;;;;5029530;28;20456;-74
2021/06/24 10:56:22;;;;;;;15.20;14.00;;;;;;;;;;5036611;28;20549;-75
2021/06/24 10:58:50;;;;;;;15.43;13.43;;;;;;;;;;5032105;28;20545;-75
2021/06/24 11:01:19;;;;;;;19.07;17.40;;;;;;;;;;5027612;28;20999;-75
2021/06/24 11:03:48;;;;;;;17.80;16.17;;;;;;;;;;5029435;28;20802;-74
2021/06/24 11:06:15;;;;;;;16.00;14.60;;;;;;;;;;5030553;28;20473;-74
2021/06/24 11:08:44;;;;;;;15.67;14.33;;;;;;;;;;5026982;28;21148;-74
2021/06/24 11:11:12;;;;;;;13.77;12.67;;;;;;;;;;5026326;28;20937;-74
2021/06/24 11:13:49;;;;;;;14.30;13.20;;;;;;;;;;5025848;28;20444;-75
2021/06/24 11:16:31;;;;;;;14.93;13.47;;;;;;;;;;5029889;28;20469;-74
2021/06/24 11:19:02;;;;;;;13.87;12.77;;;;;;;;;;5024671;28;20533;-75
2021/06/24 11:21:44;;;;;;;17.07;15.47;;;;;;;;;;5028499;28;20441;-74
2021/06/24 11:24:16;;;;;;;15.27;13.97;;;;;;;;;;5026649;28;20524;-74
2021/06/24 11:26:44;;;;;;;15.33;14.13;;;;;;;;;;5028642;28;20555;-74
2021/06/24 11:29:18;;;;;;;13.47;12.40;;;;;;;;;;5026215;28;20496;-75
2021/06/24 11:31:49;;;;;;;14.27;12.97;;;;;;;;;;5024650;28;20445;-75
2021/06/24 11:34:23;;;;;;;14.80;13.60;;;;;;;;;;5027123;28;21032;-75
2021/06/24 11:36:51;;;;;;;14.50;13.30;;;;;;;;;;5029360;28;20452;-75
2021/06/24 11:39:25;;;;;;;13.27;12.17;;;;;;;;;;5027215;28;20457;-73
2021/06/24 11:41:52;;;;;;;12.70;11.60;;;;;;;;;;5029711;28;20452;-74
2021/06/24 11:44:24;;;;;;;13.50;12.40;;;;;;;;;;5026689;28;20542;-74
2021/06/24 11:46:55;;;;;;;14.83;13.47;;;;;;;;;;5029251;28;20466;-74
2021/06/24 12:00:23;;;;;;;12.60;11.60;;;;;;;;;;5022968;28;20559;-74
2021/06/24 12:00:52;;;;;;;13.93;12.93;;;;;;;;;;5026086;28;20949;-74
2021/06/24 12:03:19;;;;;;;13.60;12.53;;;;;;;;;;5024022;28;20461;-74
2021/06/24 12:05:54;;;;;;;13.03;11.73;;;;;;;;;;5021617;28;20477;-74
2021/06/24 12:08:22;;;;;;;12.50;11.50;;;;;;;;;;5028087;28;20481;-74
2021/06/24 12:10:49;;;;;;;12.53;11.53;;;;;;;;;;5026220;28;20830;-74
2021/06/24 12:13:29;;;;;;;13.20;12.10;;;;;;;;;;5030467;28;20489;-74
2021/06/24 12:15:56;;;;;;;11.93;10.90;;;;;;;;;;5026118;28;20490;-74
2021/06/24 12:18:32;;;;;;;17.40;11.33;;;;;;;;;;5034192;28;20447;-75
2021/06/24 12:21:04;;;;;;;10.60;9.80;;;;;;;;;;5027354;28;20547;-75
2021/06/24 12:23:31;;;;;;;12.63;11.63;;;;;;;;;;5028316;28;20450;-75
2021/06/24 12:26:00;;;;;;;11.53;10.63;;;;;;;;;;5025627;28;20475;-75
2021/06/24 12:28:27;;;;;;;10.97;10.13;;;;;;;;;;5028016;28;21616;-75
2021/06/24 12:30:55;;;;;;;11.33;10.40;;;;;;;;;;5026132;28;20930;-75
2021/06/24 12:33:25;;;;;;;10.63;9.83;;;;;;;;;;5030448;28;20462;-75
2021/06/24 12:35:53;;;;;;;11.10;10.20;;;;;;;;;;5020117;28;20522;-75
2021/06/24 12:38:23;;;;;;;11.00;10.20;;;;;;;;;;5029904;28;20444;-75
2021/06/24 12:40:51;;;;;;;11.07;10.10;;;;;;;;;;5028525;28;20985;-74
2021/06/24 12:43:19;;;;;;;11.27;10.17;;;;;;;;;;5026917;28;22281;-73
2021/06/24 12:45:47;;;;;;;9.30;8.70;;;;;;;;;;5025326;28;20478;-74
2021/06/24 12:48:28;;;;;;;9.10;8.40;;;;;;;;;;5026337;28;20458;-74
2021/06/24 12:50:55;;;;;;;9.83;9.13;;;;;;;;;;5022961;28;20442;-74
2021/06/24 12:53:31;;;;;;;9.93;9.17;;;;;;;;;;5030072;28;20455;-74
2021/06/24 12:55:59;;;;;;;11.37;10.47;;;;;;;;;;5027834;28;20447;-73
2021/06/24 12:58:33;;;;;;;10.20;9.43;;;;;;;;;;5028876;28;20461;-75
2021/06/24 13:01:09;;;;;;;10.07;9.27;;;;;;;;;;5021293;28;20498;-75
2021/06/24 13:03:36;;;;;;;10.60;9.80;;;;;;;;;;5032263;28;20943;-75
2021/06/24 13:06:08;;;;;;;9.87;9.07;;;;;;;;;;5028018;28;20475;-74
2021/06/24 13:08:36;;;;;;;10.53;9.70;;;;;;;;;;5028044;28;20459;-75
2021/06/24 13:11:13;;;;;;;9.87;9.17;;;;;;;;;;5030339;28;20461;-74
2021/06/24 13:13:40;;;;;;;9.57;8.97;;;;;;;;;;5029861;28;20475;-74
2021/06/24 13:16:22;;;;;;;9.10;8.40;;;;;;;;;;5028531;28;20896;-74
2021/06/24 13:18:50;;;;;;;9.47;8.60;;;;;;;;;;5034818;28;20449;-74
2021/06/24 13:21:17;;;;;;;10.00;9.07;;;;;;;;;;5040015;28;20490;-75
2021/06/24 13:23:46;;;;;;;10.10;9.03;;;;;;;;;;5035646;28;20455;-74
2021/06/24 13:26:17;;;;;;;11.00;10.10;;;;;;;;;;5038388;28;20474;-74
2021/06/24 13:28:45;;;;;;;9.63;8.93;;;;;;;;;;5036171;28;20457;-75
2021/06/24 13:31:13;;;;;;;9.40;8.77;;;;;;;;;;5035020;28;20454;-75
2021/06/24 13:33:43;;;;;;;8.70;8.10;;;;;;;;;;5027192;28;20768;-74
2021/06/24 13:36:20;;;;;;;9.37;8.47;;;;;;;;;;5035270;28;20453;-74
2021/06/24 13:38:56;;;;;;;8.50;7.70;;;;;;;;;;5027999;28;20448;-75
2021/06/24 13:41:24;;;;;;;7.93;7.30;;;;;;;;;;5031225;28;20657;-75
2021/06/24 13:44:03;;;;;;;7.60;7.10;;;;;;;;;;5029669;28;20455;-74
2021/06/24 13:46:30;;;;;;;8.40;7.77;;;;;;;;;;5027209;28;20478;-74
2021/06/24 13:48:57;;;;;;;8.07;7.50;;;;;;;;;;5022068;28;20534;-75
2021/06/24 13:51:24;;;;;;;8.20;7.50;;;;;;;;;;5028165;28;20531;-75
2021/06/24 13:53:59;;;;;;;8.40;7.80;;;;;;;;;;5032432;28;20454;-74
2021/06/24 13:56:27;;;;;;;8.73;7.63;;;;;;;;;;5025008;28;20439;-74
2021/06/24 13:58:54;;;;;;;9.50;8.80;;;;;;;;;;5023212;28;20492;-75
2021/06/24 14:01:22;;;;;;;8.80;8.20;;;;;;;;;;5025869;28;20464;-75
2021/06/24 14:03:49;;;;;;;7.90;7.40;;;;;;;;;;5026478;28;20448;-74
2021/06/24 14:06:17;;;;;;;8.83;8.23;;;;;;;;;;5027420;28;20893;-75
2021/06/24 14:08:44;;;;;;;9.07;8.37;;;;;;;;;;5027148;28;20524;-74
2021/06/24 14:11:14;;;;;;;8.27;7.60;;;;;;;;;;5036974;28;20553;-75
2021/06/24 14:13:42;;;;;;;8.63;8.03;;;;;;;;;;5028387;28;20476;-75
2021/06/24 14:16:13;;;;;;;9.57;8.50;;;;;;;;;;5030286;28;20474;-75
2021/06/24 14:18:40;;;;;;;9.50;8.70;;;;;;;;;;5030462;28;20550;-74
2021/06/24 14:21:10;;;;;;;9.03;8.33;;;;;;;;;;5029864;28;20471;-75
2021/06/24 14:23:38;;;;;;;7.57;6.93;;;;;;;;;;5030132;28;20473;-76
2021/06/24 14:26:06;;;;;;;8.70;8.00;;;;;;;;;;5028454;28;20468;-74
2021/06/24 14:28:34;;;;;;;8.50;7.90;;;;;;;;;;5037280;28;20450;-74
2021/06/24 14:31:02;;;;;;;8.97;8.17;;;;;;;;;;5028598;28;20463;-75
2021/06/24 14:33:29;;;;;;;8.57;7.87;;;;;;;;;;5032213;28;20452;-75
2021/06/24 14:35:57;;;;;;;8.70;7.90;;;;;;;;;;5029170;28;20453;-75